createdAt,value
2023-03-07T00:04:57.701Z,127.63
2023-03-07T00:39:56.845Z,111.31
2023-03-07T01:56:54.960Z,85.42
2023-03-07T01:57:54.922Z,84.48
2023-03-07T01:58:54.906Z,84.45
2023-03-07T01:59:54.868Z,84.41
2023-03-07T02:00:54.877Z,84.75
2023-03-07T02:01:54.813Z,82.89
2023-03-07T02:02:54.794Z,83.19
2023-03-07T02:03:54.898Z,83.11
2023-03-07T02:04:54.738Z,81.81
2023-03-07T02:05:54.705Z,82.18
2023-03-07T02:06:54.678Z,82.03
2023-03-07T02:07:54.649Z,81.61
2023-03-07T02:08:54.644Z,81.67
2023-03-07T02:09:54.630Z,80.09
2023-03-07T02:10:54.591Z,80.78
2023-03-07T02:11:54.556Z,80.00
2023-03-07T02:12:54.538Z,80.47
2023-03-07T02:13:54.511Z,79.96
2023-03-07T02:14:54.485Z,78.61
2023-03-07T02:15:54.504Z,78.75
2023-03-07T02:16:54.458Z,78.91
2023-03-07T02:17:54.413Z,78.89
2023-03-07T02:18:54.376Z,79.79
2023-03-07T02:19:54.347Z,79.45
2023-03-07T02:20:54.324Z,79.27
2023-03-07T02:21:54.290Z,80.29
2023-03-07T02:22:54.266Z,77.39
2023-03-07T02:23:54.245Z,78.46
2023-03-07T02:24:54.219Z,77.19
2023-03-07T02:25:54.205Z,77.67
2023-03-07T02:26:54.186Z,76.74
2023-03-07T02:27:54.159Z,75.94
2023-03-07T02:28:54.141Z,76.05
2023-03-07T02:29:54.128Z,75.03
2023-03-07T02:30:54.109Z,75.13
2023-03-07T02:31:54.066Z,76.31
2023-03-07T02:32:54.062Z,74.59
2023-03-07T02:33:54.034Z,75.65
2023-03-07T02:34:54.011Z,74.03
2023-03-07T02:35:54.043Z,74.99
2023-03-07T02:36:53.967Z,74.89
2023-03-07T02:37:53.947Z,73.14
2023-03-07T02:38:53.935Z,73.69
2023-03-07T02:39:53.907Z,73.58
2023-03-07T02:40:53.906Z,72.03
2023-03-07T02:41:53.872Z,72.78
2023-03-07T02:42:53.850Z,73.01
2023-03-07T02:43:53.827Z,73.30
2023-03-07T02:44:53.804Z,72.62
2023-03-07T02:45:53.790Z,71.71
2023-03-07T02:46:53.766Z,71.57
2023-03-07T02:47:53.749Z,71.27
2023-03-07T02:48:53.713Z,69.70
2023-03-07T02:49:53.687Z,70.48
2023-03-07T02:50:53.658Z,70.65
2023-03-07T02:51:53.649Z,69.38
2023-03-07T02:52:53.612Z,70.20
2023-03-07T02:53:53.580Z,68.88
2023-03-07T02:54:53.560Z,69.40
2023-03-07T02:55:53.529Z,68.77
2023-03-07T02:56:53.519Z,68.88
2023-03-07T02:57:53.496Z,69.08
2023-03-07T02:58:53.457Z,69.11
2023-03-07T02:59:53.428Z,69.89
2023-03-07T03:00:53.405Z,69.97
2023-03-07T03:01:53.418Z,68.93
2023-03-07T03:02:53.363Z,67.67
2023-03-07T03:03:53.337Z,69.01
2023-03-07T03:04:53.341Z,69.10
2023-03-07T03:05:53.293Z,69.23
2023-03-07T03:06:53.275Z,69.17
2023-03-07T03:07:53.254Z,68.69
2023-03-07T03:08:53.236Z,69.35
2023-03-07T03:09:53.207Z,68.16
2023-03-07T03:10:53.174Z,67.26
2023-03-07T09:14:44.883Z,17.20
2023-03-07T10:04:43.309Z,13.60
2023-03-07T11:19:40.568Z,7.50
2023-03-07T11:40:27.744Z,0.50
2023-03-07T11:41:27.661Z,0.50
2023-03-07T11:42:27.620Z,0.50
2023-03-07T11:43:27.593Z,0.50
2023-03-07T11:44:27.579Z,0.50
2023-03-07T11:45:27.577Z,0.58
2023-03-07T11:46:27.573Z,0.50
2023-03-07T11:47:27.561Z,0.51
2023-03-07T11:48:27.517Z,0.51
2023-03-07T11:49:27.502Z,0.49
2023-03-07T11:50:27.473Z,0.48
2023-03-07T11:51:27.467Z,0.50
2023-03-07T11:52:27.448Z,0.43
2023-03-07T11:53:27.438Z,0.35
2023-03-07T11:54:27.424Z,0.34
2023-03-07T11:55:27.405Z,0.36
2023-03-07T11:56:27.386Z,0.36
2023-03-07T11:57:27.373Z,0.42
2023-03-07T11:58:27.385Z,0.43
2023-03-07T11:59:27.360Z,0.57
2023-03-07T12:00:27.354Z,0.54
2023-03-07T12:01:27.346Z,0.62
2023-03-07T12:02:27.380Z,0.53
2023-03-07T12:03:27.296Z,0.53
2023-03-07T12:04:27.295Z,0.71
2023-03-07T12:05:27.322Z,0.62
2023-03-07T12:06:27.267Z,0.58
2023-03-07T12:07:27.272Z,0.50
2023-03-07T12:08:27.250Z,0.62
2023-03-07T12:09:27.238Z,0.57
2023-03-07T12:10:27.204Z,0.48
2023-03-07T12:11:27.204Z,0.48
2023-03-07T12:12:27.208Z,0.48
2023-03-07T12:13:27.177Z,0.49
2023-03-07T12:14:27.189Z,0.48
2023-03-07T12:15:27.167Z,0.50
2023-03-07T12:16:27.197Z,0.52
2023-03-07T12:17:27.147Z,0.52
2023-03-07T12:18:27.156Z,0.54
2023-03-07T12:19:27.127Z,0.53
2023-03-07T12:20:27.168Z,0.57
2023-03-07T12:21:27.086Z,0.82
2023-03-07T12:22:27.069Z,1.68
2023-03-07T12:23:27.071Z,3.12
2023-03-07T12:24:27.053Z,5.00
2023-03-07T12:25:27.041Z,6.92
2023-03-07T12:26:27.032Z,11.01
2023-03-07T12:27:27.002Z,14.92
2023-03-07T12:28:27.009Z,13.51
2023-03-07T12:29:26.968Z,16.15
2023-03-07T12:30:26.954Z,19.85
2023-03-07T12:31:27.029Z,19.98
2023-03-07T12:32:27.118Z,20.71
2023-03-07T12:33:27.611Z,21.81
2023-03-07T12:34:26.871Z,23.60
2023-03-07T12:35:26.891Z,27.98
2023-03-07T12:36:26.839Z,31.55
2023-03-07T12:37:26.820Z,41.35
2023-03-07T12:38:26.791Z,41.37
2023-03-07T12:39:26.821Z,39.21
2023-03-07T12:40:26.769Z,40.46
2023-03-07T12:41:26.837Z,40.91
2023-03-07T12:42:26.736Z,40.91
2023-03-07T12:43:26.732Z,43.86
2023-03-07T12:44:26.690Z,46.99
2023-03-07T12:45:27.430Z,48.57
2023-03-07T12:46:26.679Z,50.15
2023-03-07T12:47:26.649Z,52.60
2023-03-07T12:48:26.619Z,58.53
2023-03-07T12:49:26.599Z,60.08
2023-03-07T12:50:26.579Z,52.29
2023-03-07T12:51:26.851Z,55.14
2023-03-07T12:52:26.529Z,58.35
2023-03-07T12:53:26.513Z,63.38
2023-03-07T12:54:26.477Z,62.43
2023-03-07T12:55:26.483Z,66.55
2023-03-07T12:56:26.462Z,66.50
2023-03-07T12:57:26.594Z,81.56
2023-03-07T12:58:26.399Z,73.92
2023-03-07T12:59:26.390Z,109.09
2023-03-07T13:00:26.369Z,150.65
2023-03-07T13:01:26.384Z,127.27
2023-03-07T13:02:26.330Z,132.83
2023-03-07T13:03:26.290Z,125.51
2023-03-07T13:04:26.299Z,114.22
2023-03-07T13:05:26.256Z,121.59
2023-03-07T13:06:26.240Z,136.91
2023-03-07T13:07:26.192Z,128.89
2023-03-07T13:08:26.169Z,131.54
2023-03-07T13:09:26.167Z,137.60
2023-03-07T13:10:26.130Z,148.64
2023-03-07T13:11:26.189Z,163.48
2023-03-07T13:12:26.083Z,153.27
2023-03-07T13:13:26.480Z,160.18
2023-03-07T13:14:26.032Z,171.26
2023-03-07T13:15:26.014Z,170.42
2023-03-07T13:16:26.002Z,171.40
2023-03-07T13:17:25.968Z,170.89
2023-03-07T13:18:25.934Z,173.48
2023-03-07T13:19:26.812Z,176.40
2023-03-07T13:20:25.898Z,175.87
2023-03-07T13:21:25.866Z,161.47
2023-03-07T13:22:25.856Z,161.71
2023-03-07T13:23:25.861Z,163.12
2023-03-07T13:24:25.806Z,163.39
2023-03-07T13:25:27.316Z,163.51
2023-03-07T13:26:25.756Z,157.87
2023-03-07T13:27:25.742Z,152.76
2023-03-07T13:28:25.713Z,146.38
2023-03-07T13:29:25.696Z,152.19
2023-03-07T13:30:25.771Z,148.35
2023-03-07T13:31:26.553Z,146.17
2023-03-07T13:32:25.633Z,130.88
2023-03-07T13:33:25.615Z,131.29
2023-03-07T13:34:25.591Z,122.82
2023-03-07T13:35:25.623Z,129.91
2023-03-07T13:36:25.560Z,139.59
2023-03-07T13:37:26.003Z,154.42
2023-03-07T13:38:25.522Z,154.43
2023-03-07T13:39:25.490Z,140.17
2023-03-07T13:40:25.470Z,147.49
2023-03-07T13:41:25.462Z,145.81
2023-03-07T13:42:25.441Z,156.21
2023-03-07T13:43:27.836Z,159.84
2023-03-07T13:44:25.378Z,151.74
2023-03-07T13:45:25.366Z,154.76
2023-03-07T13:46:25.470Z,154.77
2023-03-07T13:47:25.311Z,155.37
2023-03-07T13:48:25.276Z,155.15
2023-03-07T13:49:26.510Z,155.14
2023-03-07T13:50:25.230Z,152.57
2023-03-07T13:51:25.217Z,152.61
2023-03-07T13:52:25.169Z,158.59
2023-03-07T13:53:25.176Z,164.71
2023-03-07T13:54:25.116Z,172.45
2023-03-07T13:55:25.092Z,184.85
2023-03-07T13:56:25.076Z,169.61
2023-03-07T13:57:27.314Z,170.70
2023-03-07T13:58:24.999Z,178.73
2023-03-07T13:59:24.989Z,178.55
2023-03-07T14:00:24.960Z,182.57
2023-03-07T14:01:25.020Z,186.96
2023-03-07T14:02:24.891Z,178.48
2023-03-07T14:03:27.473Z,187.50
2023-03-07T14:04:38.941Z,187.95
2023-03-07T14:05:25.849Z,188.34
2023-03-07T14:06:24.801Z,189.08
2023-03-07T14:07:24.758Z,190.27
2023-03-07T14:08:24.743Z,192.35
2023-03-07T14:09:24.749Z,182.70
2023-03-07T14:10:24.751Z,183.08
2023-03-07T14:11:24.761Z,193.13
2023-03-07T14:12:24.642Z,200.20
2023-03-07T14:13:24.604Z,195.78
2023-03-07T14:14:24.637Z,169.37
2023-03-07T14:15:24.577Z,176.85
2023-03-07T14:16:24.624Z,180.05
2023-03-07T14:17:24.538Z,181.92
2023-03-07T14:18:24.486Z,191.30
2023-03-07T14:19:24.458Z,192.41
2023-03-07T14:20:24.445Z,190.64
2023-03-07T14:21:24.471Z,190.87
2023-03-07T14:22:24.411Z,192.82
2023-03-07T14:23:24.380Z,195.36
2023-03-07T14:24:24.355Z,203.50
2023-03-07T14:25:24.347Z,201.80
2023-03-07T14:26:24.328Z,195.50
2023-03-07T14:27:24.308Z,195.59
2023-03-07T14:28:24.309Z,196.62
2023-03-07T14:29:24.309Z,198.53
2023-03-07T14:30:24.228Z,196.47
2023-03-07T14:31:24.283Z,203.70
2023-03-07T14:32:24.234Z,205.89
2023-03-07T14:33:24.166Z,209.02
2023-03-07T14:34:24.145Z,209.31
2023-03-07T14:35:24.130Z,208.66
2023-03-07T14:36:24.134Z,212.05
2023-03-07T14:37:24.089Z,211.10
2023-03-07T14:38:24.057Z,205.60
2023-03-07T14:39:24.043Z,210.13
2023-03-07T14:40:24.030Z,206.08
2023-03-07T14:41:24.012Z,204.44
2023-03-07T14:42:23.983Z,199.29
2023-03-07T14:43:23.965Z,197.09
2023-03-07T14:44:23.947Z,196.92
2023-03-07T14:45:23.923Z,197.07
2023-03-07T14:46:23.989Z,198.00
2023-03-07T14:47:23.916Z,189.03
2023-03-07T14:48:23.870Z,187.17
2023-03-07T14:49:23.844Z,190.15
2023-03-07T14:50:23.866Z,190.56
2023-03-07T14:51:23.806Z,190.72
2023-03-07T14:52:30.852Z,191.88
2023-03-07T14:53:24.746Z,190.65
2023-03-07T14:54:23.741Z,192.04
2023-03-07T14:55:23.705Z,193.08
2023-03-07T14:56:23.693Z,197.86
2023-03-07T14:57:23.709Z,200.80
2023-03-07T14:58:23.682Z,199.52
2023-03-07T14:59:28.918Z,193.89
2023-03-07T15:00:24.638Z,194.12
2023-03-07T15:01:23.737Z,194.55
2023-03-07T15:02:23.660Z,193.96
2023-03-07T15:03:23.607Z,193.43
2023-03-07T15:04:23.653Z,188.52
2023-03-07T15:05:23.601Z,191.88
2023-03-07T15:06:23.574Z,183.97
2023-03-07T15:07:23.551Z,185.14
2023-03-07T15:08:23.542Z,189.49
2023-03-07T15:09:23.501Z,186.90
2023-03-07T15:10:23.498Z,183.78
2023-03-07T15:11:23.491Z,180.86
2023-03-07T15:12:23.486Z,183.72
2023-03-07T15:13:23.474Z,172.20
2023-03-07T15:14:23.444Z,184.23
2023-03-07T15:15:23.449Z,185.46
2023-03-07T15:17:23.423Z,182.34
2023-03-07T15:18:23.398Z,183.20
2023-03-07T15:19:23.419Z,179.98
2023-03-07T15:20:23.434Z,182.14
2023-03-07T15:22:23.362Z,177.38
2023-03-07T15:23:23.317Z,182.91
2023-03-07T15:24:23.332Z,184.25
2023-03-07T15:25:25.702Z,181.40
2023-03-07T15:26:23.343Z,182.55
2023-03-07T15:27:23.335Z,181.61
2023-03-07T15:28:23.331Z,184.71
2023-03-07T15:29:23.308Z,186.39
2023-03-07T15:30:23.312Z,189.65
2023-03-07T15:31:23.336Z,184.97
2023-03-07T15:32:23.339Z,182.11
2023-03-07T15:33:23.258Z,184.35
2023-03-07T15:34:23.247Z,183.11
2023-03-07T15:35:23.221Z,180.83
2023-03-07T15:36:23.205Z,185.76
2023-03-07T15:37:23.193Z,183.99
2023-03-07T15:38:23.166Z,184.19
2023-03-07T19:06:20.294Z,90.72
2023-03-07T19:09:20.248Z,89.50
2023-03-07T19:15:20.184Z,87.49
2023-03-07T19:25:19.985Z,85.16
2023-03-07T19:33:19.864Z,83.68
2023-03-07T19:39:19.772Z,83.85
2023-03-07T19:40:19.769Z,83.99
2023-03-07T19:41:19.749Z,84.12
2023-03-07T19:42:19.723Z,81.62
2023-03-07T19:43:19.713Z,82.80
2023-03-07T19:44:19.696Z,81.82
2023-03-07T19:45:19.671Z,81.95
2023-03-07T19:46:19.807Z,82.24
2023-03-07T19:47:19.644Z,82.01
2023-03-07T19:48:19.631Z,82.20
2023-03-07T19:49:19.614Z,82.72
2023-03-07T19:50:19.607Z,82.00
2023-03-07T19:51:19.610Z,82.44
2023-03-07T19:52:19.581Z,82.53
2023-03-07T19:53:19.578Z,82.21
2023-03-07T19:54:19.548Z,83.20
2023-03-07T19:55:19.566Z,83.07
2023-03-07T19:56:19.526Z,81.82
2023-03-07T19:57:19.528Z,82.08
2023-03-07T19:58:19.491Z,83.03
2023-03-07T19:59:19.497Z,81.39
2023-03-07T20:00:19.463Z,80.64
2023-03-07T20:01:19.481Z,80.30
2023-03-07T20:02:19.416Z,80.60
2023-03-07T20:03:19.401Z,80.71
2023-03-07T20:04:19.396Z,80.78
2023-03-07T20:05:19.397Z,80.78
2023-03-07T20:06:19.994Z,80.93
2023-03-07T20:07:19.321Z,81.07
2023-03-07T20:08:19.301Z,81.60
2023-03-07T20:09:19.293Z,82.68
2023-03-07T20:10:19.269Z,80.88
2023-03-07T20:11:19.259Z,80.70
2023-03-07T20:12:19.243Z,80.67
2023-03-07T20:13:19.235Z,80.95
2023-03-07T20:14:19.207Z,80.33
2023-03-07T20:15:19.208Z,78.89
2023-03-07T20:16:19.241Z,78.94
2023-03-07T20:17:19.169Z,78.77
2023-03-07T20:18:19.148Z,78.23
2023-03-07T20:19:19.135Z,77.85
2023-03-07T20:20:19.113Z,78.17
2023-03-07T20:21:19.112Z,77.72
2023-03-07T20:22:19.073Z,77.43
2023-03-07T20:23:19.074Z,77.02
2023-03-07T20:24:19.045Z,77.16
2023-03-07T20:25:19.027Z,76.82
2023-03-07T20:26:19.021Z,76.01
2023-03-07T20:27:19.011Z,75.43
2023-03-07T20:28:18.989Z,74.86
2023-03-07T20:29:18.962Z,75.57
2023-03-07T20:30:18.949Z,75.19
2023-03-07T20:31:18.962Z,75.18
2023-03-07T20:32:18.957Z,74.77
2023-03-07T20:33:18.906Z,74.33
2023-03-07T20:34:18.876Z,74.23
2023-03-07T20:35:18.863Z,73.73
2023-03-07T20:36:18.845Z,73.68
2023-03-07T20:37:18.840Z,73.08
2023-03-07T20:38:18.821Z,72.65
2023-03-07T20:39:18.806Z,72.87
2023-03-07T20:40:18.794Z,72.99
2023-03-07T20:41:18.780Z,73.08
2023-03-07T20:42:18.775Z,73.11
2023-03-07T20:43:18.738Z,73.00
2023-03-07T20:44:18.721Z,73.27
2023-03-07T20:45:18.703Z,73.50
2023-03-07T20:46:18.743Z,73.47
2023-03-07T20:47:18.676Z,74.10
2023-03-07T20:48:18.647Z,73.19
2023-03-07T20:49:18.643Z,72.49
2023-03-07T20:50:18.613Z,71.72
2023-03-07T20:51:18.696Z,71.80
2023-03-07T20:52:18.591Z,71.29
2023-03-07T20:53:18.569Z,70.93
2023-03-07T20:54:18.539Z,71.40
2023-03-07T20:55:18.519Z,70.86
2023-03-07T20:56:18.500Z,70.13
2023-03-07T20:57:18.493Z,70.84
2023-03-07T20:58:18.473Z,70.67
2023-03-07T20:59:18.471Z,70.05
2023-03-07T21:00:18.438Z,69.48
2023-03-07T21:01:18.448Z,70.11
2023-03-07T21:02:18.418Z,68.54
2023-03-07T21:03:18.421Z,68.56
2023-03-07T21:04:18.432Z,68.12
2023-03-07T21:05:18.356Z,67.61
2023-03-07T21:06:18.340Z,67.36
2023-03-07T21:07:18.333Z,67.46
2023-03-07T21:08:18.326Z,67.65
2023-03-07T21:09:18.310Z,67.40
2023-03-07T21:10:18.279Z,65.83
2023-03-07T21:11:18.266Z,66.45
2023-03-07T21:12:18.249Z,66.11
2023-03-07T22:33:16.900Z,51.54
2023-03-07T22:34:16.874Z,51.65
2023-03-07T22:35:16.857Z,51.97
2023-03-07T22:36:16.840Z,51.74
2023-03-07T22:37:16.829Z,52.12
2023-03-07T22:38:16.936Z,51.18
2023-03-07T22:39:16.785Z,51.77
2023-03-07T22:40:16.775Z,51.37
2023-03-07T22:41:16.752Z,51.04
2023-03-07T22:42:16.742Z,51.14
2023-03-07T22:43:16.738Z,51.43
2023-03-07T22:44:16.731Z,50.86
2023-03-07T22:45:16.728Z,50.70
2023-03-07T22:46:16.702Z,50.90
2023-03-07T22:47:16.673Z,50.30
2023-03-07T23:34:15.956Z,44.95
